sensor_id;sensor_type;location;lat;lon;timestamp;temperature;humidity
2999;DHT22;1509;51.964;7.628;2024-01-11T00:02:16;-4.30;99.90
2999;DHT22;1509;51.964;7.628;2024-01-11T00:04:43;-4.30;99.90
2999;DHT22;1509;51.964;7.628;2024-01-11T00:07:09;-4.30;99.90
2999;DHT22;1509;51.964;7.628;2024-01-11T00:09:42;-4.30;99.90
2999;DHT22;1509;51.964;7.628;2024-01-11T00:12:08;-4.20;99.90
2999;DHT22;1509;51.964;7.628;2024-01-11T00:14:34;-4.30;99.90
2999;DHT22;1509;51.964;7.628;2024-01-11T00:17:00;-4.20;99.90
2999;DHT22;1509;51.964;7.628;2024-01-11T00:19:26;-4.30;99.90
2999;DHT22;1509;51.964;7.628;2024-01-11T00:21:51;-4.30;99.90
2999;DHT22;1509;51.964;7.628;2024-01-11T00:24:17;-4.30;99.90
2999;DHT22;1509;51.964;7.628;2024-01-11T00:26:45;-4.30;99.90
2999;DHT22;1509;51.964;7.628;2024-01-11T00:29:11;-4.30;99.90
2999;DHT22;1509;51.964;7.628;2024-01-11T00:31:36;-4.30;99.90
2999;DHT22;1509;51.964;7.628;2024-01-11T00:34:04;-4.30;99.90
2999;DHT22;1509;51.964;7.628;2024-01-11T00:36:30;-4.30;99.90
2999;DHT22;1509;51.964;7.628;2024-01-11T00:38:55;-4.30;99.90
2999;DHT22;1509;51.964;7.628;2024-01-11T00:41:21;-4.40;99.90
2999;DHT22;1509;51.964;7.628;2024-01-11T00:43:47;-4.50;99.90
2999;DHT22;1509;51.964;7.628;2024-01-11T00:46:13;-4.40;99.90
2999;DHT22;1509;51.964;7.628;2024-01-11T00:48:38;-4.50;99.90
2999;DHT22;1509;51.964;7.628;2024-01-11T00:51:05;-4.40;99.90
2999;DHT22;1509;51.964;7.628;2024-01-11T00:53:30;-4.40;99.90
2999;DHT22;1509;51.964;7.628;2024-01-11T00:55:57;-4.40;99.90
2999;DHT22;1509;51.964;7.628;2024-01-11T00:58:23;-4.40;99.90
2999;DHT22;1509;51.964;7.628;2024-01-11T01:00:48;-4.50;99.90
2999;DHT22;1509;51.964;7.628;2024-01-11T01:03:15;-4.50;99.90
2999;DHT22;1509;51.964;7.628;2024-01-11T01:05:41;-4.50;99.90
2999;DHT22;1509;51.964;7.628;2024-01-11T01:08:07;-4.50;99.90
2999;DHT22;1509;51.964;7.628;2024-01-11T01:10:33;-4.50;99.90
2999;DHT22;1509;51.964;7.628;2024-01-11T01:12:58;-4.50;99.90
2999;DHT22;1509;51.964;7.628;2024-01-11T01:15:24;-4.50;99.90
2999;DHT22;1509;51.964;7.628;2024-01-11T01:17:49;-4.50;99.90
2999;DHT22;1509;51.964;7.628;2024-01-11T01:20:15;-4.50;99.90
2999;DHT22;1509;51.964;7.628;2024-01-11T01:22:40;-4.50;99.90
2999;DHT22;1509;51.964;7.628;2024-01-11T01:25:06;-4.50;99.90
2999;DHT22;1509;51.964;7.628;2024-01-11T01:27:32;-4.50;99.90
2999;DHT22;1509;51.964;7.628;2024-01-11T01:29:58;-4.50;99.90
2999;DHT22;1509;51.964;7.628;2024-01-11T01:32:23;-4.50;99.90
2999;DHT22;1509;51.964;7.628;2024-01-11T01:34:49;-4.50;99.90
2999;DHT22;1509;51.964;7.628;2024-01-11T01:37:14;-4.50;99.90
2999;DHT22;1509;51.964;7.628;2024-01-11T01:39:40;-4.50;99.90
2999;DHT22;1509;51.964;7.628;2024-01-11T01:42:06;-4.50;99.90
2999;DHT22;1509;51.964;7.628;2024-01-11T01:44:32;-4.50;99.90
2999;DHT22;1509;51.964;7.628;2024-01-11T01:46:58;-4.50;99.90
2999;DHT22;1509;51.964;7.628;2024-01-11T01:49:24;-4.60;99.90
2999;DHT22;1509;51.964;7.628;2024-01-11T01:51:51;-4.60;99.90
2999;DHT22;1509;51.964;7.628;2024-01-11T01:54:19;-4.60;99.90
2999;DHT22;1509;51.964;7.628;2024-01-11T01:56:45;-4.70;99.90
2999;DHT22;1509;51.964;7.628;2024-01-11T01:59:11;-4.70;99.90
2999;DHT22;1509;51.964;7.628;2024-01-11T02:01:38;-4.70;99.90
2999;DHT22;1509;51.964;7.628;2024-01-11T02:04:04;-4.80;99.90
2999;DHT22;1509;51.964;7.628;2024-01-11T02:06:32;-4.70;99.90
2999;DHT22;1509;51.964;7.628;2024-01-11T02:08:59;-4.80;99.90
2999;DHT22;1509;51.964;7.628;2024-01-11T02:11:26;-4.90;99.90
2999;DHT22;1509;51.964;7.628;2024-01-11T02:13:53;-4.80;99.90
2999;DHT22;1509;51.964;7.628;2024-01-11T02:16:19;-4.90;99.90
2999;DHT22;1509;51.964;7.628;2024-01-11T02:18:45;-4.90;99.90
2999;DHT22;1509;51.964;7.628;2024-01-11T02:21:12;-4.90;99.90
2999;DHT22;1509;51.964;7.628;2024-01-11T02:27:00;-4.90;99.90
2999;DHT22;1509;51.964;7.628;2024-01-11T02:29:27;-4.90;99.90
2999;DHT22;1509;51.964;7.628;2024-01-11T02:31:53;-4.90;99.90
2999;DHT22;1509;51.964;7.628;2024-01-11T02:34:19;-5.00;99.90
2999;DHT22;1509;51.964;7.628;2024-01-11T02:36:46;-5.00;99.90
2999;DHT22;1509;51.964;7.628;2024-01-11T02:39:13;-4.70;99.90
2999;DHT22;1509;51.964;7.628;2024-01-11T02:41:44;-5.00;99.90
2999;DHT22;1509;51.964;7.628;2024-01-11T02:44:09;-4.90;99.90
2999;DHT22;1509;51.964;7.628;2024-01-11T02:46:35;-4.90;99.90
2999;DHT22;1509;51.964;7.628;2024-01-11T02:49:01;-4.90;99.90
2999;DHT22;1509;51.964;7.628;2024-01-11T02:51:26;-4.90;99.90
2999;DHT22;1509;51.964;7.628;2024-01-11T02:53:52;-4.90;99.90
2999;DHT22;1509;51.964;7.628;2024-01-11T02:56:17;-4.90;99.90
2999;DHT22;1509;51.964;7.628;2024-01-11T02:58:45;-5.00;99.90
2999;DHT22;1509;51.964;7.628;2024-01-11T03:01:11;-5.00;99.90
2999;DHT22;1509;51.964;7.628;2024-01-11T03:03:36;-5.00;99.90
2999;DHT22;1509;51.964;7.628;2024-01-11T03:06:02;-5.00;99.90
2999;DHT22;1509;51.964;7.628;2024-01-11T03:08:28;-5.00;99.90
2999;DHT22;1509;51.964;7.628;2024-01-11T03:10:54;-5.00;99.90
2999;DHT22;1509;51.964;7.628;2024-01-11T03:13:20;-5.00;99.90
2999;DHT22;1509;51.964;7.628;2024-01-11T03:15:45;-5.00;99.90
2999;DHT22;1509;51.964;7.628;2024-01-11T03:18:11;-5.00;99.90
2999;DHT22;1509;51.964;7.628;2024-01-11T03:20:36;-5.00;99.90
2999;DHT22;1509;51.964;7.628;2024-01-11T03:23:02;-5.10;99.90
2999;DHT22;1509;51.964;7.628;2024-01-11T03:25:29;-5.10;99.90
2999;DHT22;1509;51.964;7.628;2024-01-11T03:27:55;-5.10;99.90
2999;DHT22;1509;51.964;7.628;2024-01-11T03:30:20;-5.10;99.90
2999;DHT22;1509;51.964;7.628;2024-01-11T03:32:46;-5.10;99.90
2999;DHT22;1509;51.964;7.628;2024-01-11T03:35:12;-5.10;99.90
2999;DHT22;1509;51.964;7.628;2024-01-11T03:37:37;-5.10;99.90
2999;DHT22;1509;51.964;7.628;2024-01-11T03:40:03;-5.10;99.90
2999;DHT22;1509;51.964;7.628;2024-01-11T03:42:29;-5.20;99.90
2999;DHT22;1509;51.964;7.628;2024-01-11T03:44:55;-5.20;99.90
2999;DHT22;1509;51.964;7.628;2024-01-11T03:47:21;-5.20;99.90
2999;DHT22;1509;51.964;7.628;2024-01-11T03:49:46;-5.30;99.90
2999;DHT22;1509;51.964;7.628;2024-01-11T03:52:12;-5.30;99.90
2999;DHT22;1509;51.964;7.628;2024-01-11T03:54:38;-5.30;99.90
2999;DHT22;1509;51.964;7.628;2024-01-11T03:57:03;-5.30;99.90
2999;DHT22;1509;51.964;7.628;2024-01-11T03:59:32;-5.40;99.90
2999;DHT22;1509;51.964;7.628;2024-01-11T04:01:58;-5.40;99.90
2999;DHT22;1509;51.964;7.628;2024-01-11T04:04:24;-5.40;99.90
2999;DHT22;1509;51.964;7.628;2024-01-11T04:06:51;-5.40;99.90
2999;DHT22;1509;51.964;7.628;2024-01-11T04:09:17;-5.40;99.90
2999;DHT22;1509;51.964;7.628;2024-01-11T04:11:44;-5.40;99.90
2999;DHT22;1509;51.964;7.628;2024-01-11T04:14:12;-5.50;99.90
2999;DHT22;1509;51.964;7.628;2024-01-11T04:16:44;-5.60;99.90
2999;DHT22;1509;51.964;7.628;2024-01-11T04:19:10;-5.60;99.90
2999;DHT22;1509;51.964;7.628;2024-01-11T04:21:36;-5.60;99.90
2999;DHT22;1509;51.964;7.628;2024-01-11T04:24:04;-5.60;99.90
2999;DHT22;1509;51.964;7.628;2024-01-11T04:26:31;-5.50;99.90
2999;DHT22;1509;51.964;7.628;2024-01-11T04:28:56;-5.50;99.90
2999;DHT22;1509;51.964;7.628;2024-01-11T04:31:25;-5.50;99.90
2999;DHT22;1509;51.964;7.628;2024-01-11T04:33:50;-5.50;99.90
2999;DHT22;1509;51.964;7.628;2024-01-11T04:36:16;-5.50;99.90
2999;DHT22;1509;51.964;7.628;2024-01-11T04:38:41;-5.30;99.90
2999;DHT22;1509;51.964;7.628;2024-01-11T04:41:16;-5.50;99.90
2999;DHT22;1509;51.964;7.628;2024-01-11T04:43:44;-5.50;99.90
2999;DHT22;1509;51.964;7.628;2024-01-11T04:46:18;-5.60;99.90
2999;DHT22;1509;51.964;7.628;2024-01-11T04:48:44;-5.60;99.90
2999;DHT22;1509;51.964;7.628;2024-01-11T04:51:10;-5.60;99.90
2999;DHT22;1509;51.964;7.628;2024-01-11T04:53:39;-5.50;99.90
2999;DHT22;1509;51.964;7.628;2024-01-11T04:56:10;-5.60;99.90
2999;DHT22;1509;51.964;7.628;2024-01-11T04:58:39;-5.50;99.90
2999;DHT22;1509;51.964;7.628;2024-01-11T05:01:14;-5.60;99.90
2999;DHT22;1509;51.964;7.628;2024-01-11T05:03:40;-5.50;99.90
2999;DHT22;1509;51.964;7.628;2024-01-11T05:06:06;-5.60;99.90
2999;DHT22;1509;51.964;7.628;2024-01-11T05:08:31;-5.50;99.90
2999;DHT22;1509;51.964;7.628;2024-01-11T05:10:57;-5.50;99.90
2999;DHT22;1509;51.964;7.628;2024-01-11T05:13:23;-5.50;99.90
2999;DHT22;1509;51.964;7.628;2024-01-11T05:15:48;-5.40;99.90
2999;DHT22;1509;51.964;7.628;2024-01-11T05:18:14;-5.40;99.90
2999;DHT22;1509;51.964;7.628;2024-01-11T05:20:40;-5.40;99.90
2999;DHT22;1509;51.964;7.628;2024-01-11T05:23:05;-5.40;99.90
2999;DHT22;1509;51.964;7.628;2024-01-11T05:25:32;-5.40;99.90
2999;DHT22;1509;51.964;7.628;2024-01-11T05:28:02;-5.40;99.90
2999;DHT22;1509;51.964;7.628;2024-01-11T05:30:29;-5.40;99.90
2999;DHT22;1509;51.964;7.628;2024-01-11T05:32:55;-5.50;99.90
2999;DHT22;1509;51.964;7.628;2024-01-11T05:35:21;-5.50;99.90
2999;DHT22;1509;51.964;7.628;2024-01-11T05:37:49;-5.50;99.90
2999;DHT22;1509;51.964;7.628;2024-01-11T05:40:15;-5.50;99.90
2999;DHT22;1509;51.964;7.628;2024-01-11T05:42:44;-5.50;99.90
2999;DHT22;1509;51.964;7.628;2024-01-11T05:45:09;-5.50;99.90
2999;DHT22;1509;51.964;7.628;2024-01-11T05:47:35;-5.50;99.90
2999;DHT22;1509;51.964;7.628;2024-01-11T05:50:01;-5.40;99.90
2999;DHT22;1509;51.964;7.628;2024-01-11T05:52:27;-5.40;99.90
2999;DHT22;1509;51.964;7.628;2024-01-11T05:54:53;-5.40;99.90
2999;DHT22;1509;51.964;7.628;2024-01-11T05:57:18;-5.40;99.90
2999;DHT22;1509;51.964;7.628;2024-01-11T05:59:45;-5.40;99.90
2999;DHT22;1509;51.964;7.628;2024-01-11T06:02:11;-5.40;99.90
2999;DHT22;1509;51.964;7.628;2024-01-11T06:04:37;-5.40;99.90
2999;DHT22;1509;51.964;7.628;2024-01-11T06:07:03;-5.40;99.90
2999;DHT22;1509;51.964;7.628;2024-01-11T06:09:28;-5.40;99.90
2999;DHT22;1509;51.964;7.628;2024-01-11T06:11:54;-5.40;99.90
2999;DHT22;1509;51.964;7.628;2024-01-11T06:14:20;-5.30;99.90
2999;DHT22;1509;51.964;7.628;2024-01-11T06:16:45;-5.30;99.90
2999;DHT22;1509;51.964;7.628;2024-01-11T06:19:11;-5.40;99.90
2999;DHT22;1509;51.964;7.628;2024-01-11T06:21:36;-5.50;99.90
2999;DHT22;1509;51.964;7.628;2024-01-11T06:24:02;-5.40;99.90
2999;DHT22;1509;51.964;7.628;2024-01-11T06:26:29;-5.40;99.90
2999;DHT22;1509;51.964;7.628;2024-01-11T06:28:54;-5.40;99.90
2999;DHT22;1509;51.964;7.628;2024-01-11T06:31:20;-5.40;99.90
2999;DHT22;1509;51.964;7.628;2024-01-11T06:33:46;-5.40;99.90
2999;DHT22;1509;51.964;7.628;2024-01-11T06:36:11;-5.40;99.90
2999;DHT22;1509;51.964;7.628;2024-01-11T06:38:37;-5.40;99.90
2999;DHT22;1509;51.964;7.628;2024-01-11T06:41:03;-5.50;99.90
2999;DHT22;1509;51.964;7.628;2024-01-11T06:43:29;-5.50;99.90
2999;DHT22;1509;51.964;7.628;2024-01-11T06:46:04;-5.50;99.90
2999;DHT22;1509;51.964;7.628;2024-01-11T06:48:30;-5.80;99.90
2999;DHT22;1509;51.964;7.628;2024-01-11T06:50:56;-5.60;99.90
2999;DHT22;1509;51.964;7.628;2024-01-11T06:53:22;-5.50;99.90
2999;DHT22;1509;51.964;7.628;2024-01-11T06:55:47;-5.60;99.90
2999;DHT22;1509;51.964;7.628;2024-01-11T06:58:15;-5.60;99.90
2999;DHT22;1509;51.964;7.628;2024-01-11T07:00:40;-5.60;99.90
2999;DHT22;1509;51.964;7.628;2024-01-11T07:03:09;-5.60;99.90
2999;DHT22;1509;51.964;7.628;2024-01-11T07:05:36;-5.50;99.90
2999;DHT22;1509;51.964;7.628;2024-01-11T07:08:01;-5.60;99.90
2999;DHT22;1509;51.964;7.628;2024-01-11T07:10:27;-5.60;99.90
2999;DHT22;1509;51.964;7.628;2024-01-11T07:12:53;-5.80;99.90
2999;DHT22;1509;51.964;7.628;2024-01-11T07:15:18;-5.50;99.90
2999;DHT22;1509;51.964;7.628;2024-01-11T07:17:44;-5.60;99.90
2999;DHT22;1509;51.964;7.628;2024-01-11T07:20:10;-5.50;99.90
2999;DHT22;1509;51.964;7.628;2024-01-11T07:22:36;-5.40;99.90
2999;DHT22;1509;51.964;7.628;2024-01-11T07:25:01;-5.40;99.90
2999;DHT22;1509;51.964;7.628;2024-01-11T07:27:27;-5.30;99.90
2999;DHT22;1509;51.964;7.628;2024-01-11T07:29:53;-5.30;99.90
2999;DHT22;1509;51.964;7.628;2024-01-11T07:32:18;-5.30;99.90
2999;DHT22;1509;51.964;7.628;2024-01-11T07:34:44;-5.30;99.90
2999;DHT22;1509;51.964;7.628;2024-01-11T07:37:10;-5.30;99.90
2999;DHT22;1509;51.964;7.628;2024-01-11T07:39:35;-5.20;99.90
2999;DHT22;1509;51.964;7.628;2024-01-11T07:42:02;-5.00;99.90
2999;DHT22;1509;51.964;7.628;2024-01-11T07:44:28;-5.20;99.90
2999;DHT22;1509;51.964;7.628;2024-01-11T07:46:53;-5.30;99.90
2999;DHT22;1509;51.964;7.628;2024-01-11T07:49:19;-5.30;99.90
2999;DHT22;1509;51.964;7.628;2024-01-11T07:51:45;-5.20;99.90
2999;DHT22;1509;51.964;7.628;2024-01-11T07:54:11;-5.20;99.90
2999;DHT22;1509;51.964;7.628;2024-01-11T07:56:37;-5.20;99.90
2999;DHT22;1509;51.964;7.628;2024-01-11T07:59:03;-5.10;99.90
2999;DHT22;1509;51.964;7.628;2024-01-11T08:01:29;-5.10;99.90
2999;DHT22;1509;51.964;7.628;2024-01-11T08:03:55;-5.20;99.90
2999;DHT22;1509;51.964;7.628;2024-01-11T08:06:20;-5.10;99.90
2999;DHT22;1509;51.964;7.628;2024-01-11T08:08:49;-5.10;99.90
2999;DHT22;1509;51.964;7.628;2024-01-11T08:11:17;-4.90;99.90
2999;DHT22;1509;51.964;7.628;2024-01-11T08:13:43;-5.10;99.90
2999;DHT22;1509;51.964;7.628;2024-01-11T08:16:14;-5.10;99.90
2999;DHT22;1509;51.964;7.628;2024-01-11T08:18:40;-5.10;99.90
2999;DHT22;1509;51.964;7.628;2024-01-11T08:21:05;-5.20;99.90
2999;DHT22;1509;51.964;7.628;2024-01-11T08:23:39;-5.10;99.90
2999;DHT22;1509;51.964;7.628;2024-01-11T08:26:10;-5.10;99.90
2999;DHT22;1509;51.964;7.628;2024-01-11T08:28:36;-5.20;99.90
2999;DHT22;1509;51.964;7.628;2024-01-11T08:31:04;-5.10;99.90
2999;DHT22;1509;51.964;7.628;2024-01-11T08:33:30;-5.10;99.90
2999;DHT22;1509;51.964;7.628;2024-01-11T08:35:56;-5.00;99.90
2999;DHT22;1509;51.964;7.628;2024-01-11T08:38:22;-5.00;99.90
2999;DHT22;1509;51.964;7.628;2024-01-11T08:40:47;-5.00;99.90
2999;DHT22;1509;51.964;7.628;2024-01-11T08:43:13;-5.00;99.90
2999;DHT22;1509;51.964;7.628;2024-01-11T08:45:39;-4.90;99.90
2999;DHT22;1509;51.964;7.628;2024-01-11T08:48:05;-4.90;99.90
2999;DHT22;1509;51.964;7.628;2024-01-11T08:50:31;-4.80;99.90
2999;DHT22;1509;51.964;7.628;2024-01-11T08:52:58;-4.80;99.90
2999;DHT22;1509;51.964;7.628;2024-01-11T08:55:23;-4.70;99.90
2999;DHT22;1509;51.964;7.628;2024-01-11T08:57:49;-4.50;99.90
2999;DHT22;1509;51.964;7.628;2024-01-11T09:00:15;-4.60;99.90
2999;DHT22;1509;51.964;7.628;2024-01-11T09:02:44;-4.60;99.90
2999;DHT22;1509;51.964;7.628;2024-01-11T09:05:11;-4.60;99.90
2999;DHT22;1509;51.964;7.628;2024-01-11T09:07:37;-4.50;99.90
2999;DHT22;1509;51.964;7.628;2024-01-11T09:10:03;-4.50;99.90
2999;DHT22;1509;51.964;7.628;2024-01-11T09:12:28;-4.50;99.90
2999;DHT22;1509;51.964;7.628;2024-01-11T09:14:54;-4.40;99.90
2999;DHT22;1509;51.964;7.628;2024-01-11T09:17:20;-4.40;99.90
2999;DHT22;1509;51.964;7.628;2024-01-11T09:19:47;-4.30;99.90
2999;DHT22;1509;51.964;7.628;2024-01-11T09:22:12;-4.20;99.90
2999;DHT22;1509;51.964;7.628;2024-01-11T09:24:38;-4.10;99.90
2999;DHT22;1509;51.964;7.628;2024-01-11T09:27:04;-4.00;99.90
2999;DHT22;1509;51.964;7.628;2024-01-11T09:29:30;-3.90;99.90
2999;DHT22;1509;51.964;7.628;2024-01-11T09:31:55;-3.80;99.90
2999;DHT22;1509;51.964;7.628;2024-01-11T09:34:21;-3.80;99.90
2999;DHT22;1509;51.964;7.628;2024-01-11T09:36:49;-3.20;99.90
2999;DHT22;1509;51.964;7.628;2024-01-11T09:39:15;-2.30;99.90
2999;DHT22;1509;51.964;7.628;2024-01-11T09:41:45;-0.90;99.90
2999;DHT22;1509;51.964;7.628;2024-01-11T09:44:17;0.80;99.90
2999;DHT22;1509;51.964;7.628;2024-01-11T09:46:43;3.00;99.90
2999;DHT22;1509;51.964;7.628;2024-01-11T09:49:10;4.50;99.90
2999;DHT22;1509;51.964;7.628;2024-01-11T09:51:46;5.60;99.90
2999;DHT22;1509;51.964;7.628;2024-01-11T09:54:14;6.70;99.90
2999;DHT22;1509;51.964;7.628;2024-01-11T09:56:40;7.20;99.90
2999;DHT22;1509;51.964;7.628;2024-01-11T09:59:07;5.10;99.90
2999;DHT22;1509;51.964;7.628;2024-01-11T10:01:35;3.60;99.90
2999;DHT22;1509;51.964;7.628;2024-01-11T10:04:02;2.40;99.90
2999;DHT22;1509;51.964;7.628;2024-01-11T10:06:32;1.30;99.90
2999;DHT22;1509;51.964;7.628;2024-01-11T10:08:58;0.50;99.90
2999;DHT22;1509;51.964;7.628;2024-01-11T10:11:24;-0.40;99.90
2999;DHT22;1509;51.964;7.628;2024-01-11T10:13:56;-0.80;99.90
2999;DHT22;1509;51.964;7.628;2024-01-11T10:16:22;-1.00;99.90
2999;DHT22;1509;51.964;7.628;2024-01-11T10:18:48;-1.20;99.90
2999;DHT22;1509;51.964;7.628;2024-01-11T10:21:16;-1.30;99.90
2999;DHT22;1509;51.964;7.628;2024-01-11T10:23:41;-1.20;99.90
2999;DHT22;1509;51.964;7.628;2024-01-11T10:26:07;-0.90;99.90
2999;DHT22;1509;51.964;7.628;2024-01-11T10:28:33;-0.60;99.90
2999;DHT22;1509;51.964;7.628;2024-01-11T10:31:04;-0.10;99.90
2999;DHT22;1509;51.964;7.628;2024-01-11T10:33:33;0.20;99.90
2999;DHT22;1509;51.964;7.628;2024-01-11T10:36:00;0.20;99.90
2999;DHT22;1509;51.964;7.628;2024-01-11T10:38:26;0.20;99.90
2999;DHT22;1509;51.964;7.628;2024-01-11T10:40:54;0.00;99.90
2999;DHT22;1509;51.964;7.628;2024-01-11T10:43:22;0.10;99.90
2999;DHT22;1509;51.964;7.628;2024-01-11T10:45:52;0.10;99.90
2999;DHT22;1509;51.964;7.628;2024-01-11T10:48:25;0.30;99.90
2999;DHT22;1509;51.964;7.628;2024-01-11T10:50:55;0.70;99.90
2999;DHT22;1509;51.964;7.628;2024-01-11T10:53:36;0.80;99.90
2999;DHT22;1509;51.964;7.628;2024-01-11T10:56:03;0.80;99.90
2999;DHT22;1509;51.964;7.628;2024-01-11T10:58:33;0.70;99.90
2999;DHT22;1509;51.964;7.628;2024-01-11T11:01:02;0.40;99.90
2999;DHT22;1509;51.964;7.628;2024-01-11T11:03:30;0.20;99.90
2999;DHT22;1509;51.964;7.628;2024-01-11T11:05:58;0.00;99.90
2999;DHT22;1509;51.964;7.628;2024-01-11T11:08:24;0.00;99.90
2999;DHT22;1509;51.964;7.628;2024-01-11T11:10:59;-0.10;99.90
2999;DHT22;1509;51.964;7.628;2024-01-11T11:13:25;-0.20;99.90
2999;DHT22;1509;51.964;7.628;2024-01-11T11:15:54;-0.10;99.90
2999;DHT22;1509;51.964;7.628;2024-01-11T11:18:23;-0.10;99.90
2999;DHT22;1509;51.964;7.628;2024-01-11T11:20:48;0.00;99.90
2999;DHT22;1509;51.964;7.628;2024-01-11T11:23:24;0.00;99.90
2999;DHT22;1509;51.964;7.628;2024-01-11T11:25:50;-0.30;99.90
2999;DHT22;1509;51.964;7.628;2024-01-11T11:28:19;-0.50;99.90
2999;DHT22;1509;51.964;7.628;2024-01-11T11:30:49;-0.60;99.90
2999;DHT22;1509;51.964;7.628;2024-01-11T11:33:22;-0.70;99.90
2999;DHT22;1509;51.964;7.628;2024-01-11T11:35:52;-0.60;99.90
2999;DHT22;1509;51.964;7.628;2024-01-11T11:38:26;-0.60;99.90
2999;DHT22;1509;51.964;7.628;2024-01-11T11:40:56;-0.50;99.90
2999;DHT22;1509;51.964;7.628;2024-01-11T11:43:22;-0.50;99.90
2999;DHT22;1509;51.964;7.628;2024-01-11T11:45:49;-0.50;99.90
2999;DHT22;1509;51.964;7.628;2024-01-11T11:51:11;-0.40;99.90
2999;DHT22;1509;51.964;7.628;2024-01-11T11:53:38;-0.40;99.90
2999;DHT22;1509;51.964;7.628;2024-01-11T11:56:05;-0.30;99.90
2999;DHT22;1509;51.964;7.628;2024-01-11T11:58:32;-0.30;99.90
2999;DHT22;1509;51.964;7.628;2024-01-11T12:00:59;-0.30;99.90
2999;DHT22;1509;51.964;7.628;2024-01-11T12:03:32;-0.30;99.90
2999;DHT22;1509;51.964;7.628;2024-01-11T12:05:59;-0.10;99.90
2999;DHT22;1509;51.964;7.628;2024-01-11T12:08:25;-0.10;99.90
2999;DHT22;1509;51.964;7.628;2024-01-11T12:10:52;0.00;99.90
2999;DHT22;1509;51.964;7.628;2024-01-11T12:13:18;0.00;99.90
2999;DHT22;1509;51.964;7.628;2024-01-11T12:15:43;-0.10;99.90
2999;DHT22;1509;51.964;7.628;2024-01-11T12:18:09;-0.20;99.90
2999;DHT22;1509;51.964;7.628;2024-01-11T12:20:37;-0.30;99.90
2999;DHT22;1509;51.964;7.628;2024-01-11T12:23:03;-0.20;99.90
2999;DHT22;1509;51.964;7.628;2024-01-11T12:25:30;0.20;99.90
2999;DHT22;1509;51.964;7.628;2024-01-11T12:27:56;-0.10;99.90
2999;DHT22;1509;51.964;7.628;2024-01-11T12:30:28;0.00;99.90
2999;DHT22;1509;51.964;7.628;2024-01-11T12:32:56;-0.10;99.90
2999;DHT22;1509;51.964;7.628;2024-01-11T12:35:27;-0.10;99.90
2999;DHT22;1509;51.964;7.628;2024-01-11T12:37:58;-0.10;99.90
2999;DHT22;1509;51.964;7.628;2024-01-11T12:40:25;-0.10;99.90
2999;DHT22;1509;51.964;7.628;2024-01-11T12:42:53;-0.10;99.90
2999;DHT22;1509;51.964;7.628;2024-01-11T12:45:19;-0.10;99.90
2999;DHT22;1509;51.964;7.628;2024-01-11T12:47:45;0.20;99.90
2999;DHT22;1509;51.964;7.628;2024-01-11T12:50:11;0.30;99.90
2999;DHT22;1509;51.964;7.628;2024-01-11T12:52:42;0.10;99.90
2999;DHT22;1509;51.964;7.628;2024-01-11T12:55:29;0.10;99.90
2999;DHT22;1509;51.964;7.628;2024-01-11T12:58:07;0.10;99.90
2999;DHT22;1509;51.964;7.628;2024-01-11T13:00:33;0.00;99.90
2999;DHT22;1509;51.964;7.628;2024-01-11T13:02:59;0.00;99.90
2999;DHT22;1509;51.964;7.628;2024-01-11T13:05:31;0.10;99.90
2999;DHT22;1509;51.964;7.628;2024-01-11T13:08:08;-0.20;99.90
2999;DHT22;1509;51.964;7.628;2024-01-11T13:10:35;0.20;99.90
2999;DHT22;1509;51.964;7.628;2024-01-11T13:13:02;0.00;99.90
2999;DHT22;1509;51.964;7.628;2024-01-11T13:15:27;-0.10;99.90
2999;DHT22;1509;51.964;7.628;2024-01-11T13:17:57;-0.10;99.90
2999;DHT22;1509;51.964;7.628;2024-01-11T13:20:23;0.20;99.90
2999;DHT22;1509;51.964;7.628;2024-01-11T13:22:53;-0.10;99.90
2999;DHT22;1509;51.964;7.628;2024-01-11T13:25:19;-0.10;99.90
2999;DHT22;1509;51.964;7.628;2024-01-11T13:27:44;-0.10;99.90
2999;DHT22;1509;51.964;7.628;2024-01-11T13:30:10;-0.10;99.90
2999;DHT22;1509;51.964;7.628;2024-01-11T13:32:36;-0.10;99.90
2999;DHT22;1509;51.964;7.628;2024-01-11T13:35:01;0.00;99.90
2999;DHT22;1509;51.964;7.628;2024-01-11T13:37:27;0.00;99.90
2999;DHT22;1509;51.964;7.628;2024-01-11T13:39:53;0.00;99.90
2999;DHT22;1509;51.964;7.628;2024-01-11T13:42:19;0.10;99.90
2999;DHT22;1509;51.964;7.628;2024-01-11T13:44:44;0.10;99.90
2999;DHT22;1509;51.964;7.628;2024-01-11T13:47:12;0.00;99.90
2999;DHT22;1509;51.964;7.628;2024-01-11T13:49:38;0.10;99.90
2999;DHT22;1509;51.964;7.628;2024-01-11T13:52:04;0.00;99.90
2999;DHT22;1509;51.964;7.628;2024-01-11T13:54:30;0.00;99.90
2999;DHT22;1509;51.964;7.628;2024-01-11T13:56:55;0.00;99.90
2999;DHT22;1509;51.964;7.628;2024-01-11T13:59:23;0.00;99.90
2999;DHT22;1509;51.964;7.628;2024-01-11T14:01:58;0.00;99.90
2999;DHT22;1509;51.964;7.628;2024-01-11T14:04:24;0.00;99.90
2999;DHT22;1509;51.964;7.628;2024-01-11T14:06:50;0.00;99.90
2999;DHT22;1509;51.964;7.628;2024-01-11T14:09:17;0.00;99.90
2999;DHT22;1509;51.964;7.628;2024-01-11T14:11:43;0.00;99.90
2999;DHT22;1509;51.964;7.628;2024-01-11T14:14:08;0.00;99.90
2999;DHT22;1509;51.964;7.628;2024-01-11T14:16:34;0.00;99.90
2999;DHT22;1509;51.964;7.628;2024-01-11T14:19:02;0.00;99.90
2999;DHT22;1509;51.964;7.628;2024-01-11T14:21:28;0.20;99.90
2999;DHT22;1509;51.964;7.628;2024-01-11T14:23:53;0.10;99.90
2999;DHT22;1509;51.964;7.628;2024-01-11T14:26:19;-0.10;99.90
2999;DHT22;1509;51.964;7.628;2024-01-11T14:28:44;-0.10;99.90
2999;DHT22;1509;51.964;7.628;2024-01-11T14:31:10;-0.10;99.90
2999;DHT22;1509;51.964;7.628;2024-01-11T14:33:36;-0.10;99.90
2999;DHT22;1509;51.964;7.628;2024-01-11T14:36:02;-0.10;99.90
2999;DHT22;1509;51.964;7.628;2024-01-11T14:38:28;-0.10;99.90
2999;DHT22;1509;51.964;7.628;2024-01-11T14:40:54;-0.10;99.90
2999;DHT22;1509;51.964;7.628;2024-01-11T14:43:19;0.00;99.90
2999;DHT22;1509;51.964;7.628;2024-01-11T14:45:47;0.00;99.90
2999;DHT22;1509;51.964;7.628;2024-01-11T14:48:12;0.00;99.90
2999;DHT22;1509;51.964;7.628;2024-01-11T14:50:38;0.00;99.90
2999;DHT22;1509;51.964;7.628;2024-01-11T14:53:04;0.00;99.90
2999;DHT22;1509;51.964;7.628;2024-01-11T14:55:30;-0.10;99.90
2999;DHT22;1509;51.964;7.628;2024-01-11T14:57:56;-0.10;99.90
2999;DHT22;1509;51.964;7.628;2024-01-11T15:00:21;-0.20;99.90
2999;DHT22;1509;51.964;7.628;2024-01-11T15:02:47;-0.20;99.90
2999;DHT22;1509;51.964;7.628;2024-01-11T15:05:17;-0.20;99.90
2999;DHT22;1509;51.964;7.628;2024-01-11T15:07:43;-0.30;99.90
2999;DHT22;1509;51.964;7.628;2024-01-11T15:10:09;-0.30;99.90
2999;DHT22;1509;51.964;7.628;2024-01-11T15:12:37;-0.20;99.90
2999;DHT22;1509;51.964;7.628;2024-01-11T15:15:03;-0.20;99.90
2999;DHT22;1509;51.964;7.628;2024-01-11T15:17:32;-0.10;99.90
2999;DHT22;1509;51.964;7.628;2024-01-11T15:19:57;0.00;99.90
2999;DHT22;1509;51.964;7.628;2024-01-11T15:22:24;0.00;99.90
2999;DHT22;1509;51.964;7.628;2024-01-11T15:24:49;0.00;99.90
2999;DHT22;1509;51.964;7.628;2024-01-11T15:27:20;-0.10;99.90
2999;DHT22;1509;51.964;7.628;2024-01-11T15:29:46;-0.10;99.90
2999;DHT22;1509;51.964;7.628;2024-01-11T15:32:13;-0.10;99.90
2999;DHT22;1509;51.964;7.628;2024-01-11T15:34:39;0.00;99.90
2999;DHT22;1509;51.964;7.628;2024-01-11T15:37:06;0.00;99.90
2999;DHT22;1509;51.964;7.628;2024-01-11T15:39:32;0.20;99.90
2999;DHT22;1509;51.964;7.628;2024-01-11T15:42:04;-0.10;99.90
2999;DHT22;1509;51.964;7.628;2024-01-11T15:44:29;-0.10;99.90
2999;DHT22;1509;51.964;7.628;2024-01-11T15:46:56;-0.10;99.90
2999;DHT22;1509;51.964;7.628;2024-01-11T15:49:22;-0.10;99.90
2999;DHT22;1509;51.964;7.628;2024-01-11T15:51:48;-0.10;99.90
2999;DHT22;1509;51.964;7.628;2024-01-11T15:54:13;-0.10;99.90
2999;DHT22;1509;51.964;7.628;2024-01-11T15:56:39;-0.10;99.90
2999;DHT22;1509;51.964;7.628;2024-01-11T15:59:05;0.00;99.90
2999;DHT22;1509;51.964;7.628;2024-01-11T16:01:32;0.00;99.90
2999;DHT22;1509;51.964;7.628;2024-01-11T16:04:00;0.00;99.90
2999;DHT22;1509;51.964;7.628;2024-01-11T16:06:26;-0.10;99.90
2999;DHT22;1509;51.964;7.628;2024-01-11T16:08:52;0.00;99.90